AAL775 KMIA-KORF
Flight info
| Callsign | AAL775 |
|---|---|
| Flight time | 1h 52m |
| Altitude | 38000 |
| Route | FOLZZ3 ALYRA GRUBR/N0458F390 Y299 SEELO WAALT PRONI Q117 RREGG KOHLS1 |
| Aircraft | B38M/M-SDE1FGHILORVWXY/HB1 |
Departure
| Time | 2026-04-22 01:45 |
|---|---|
| Airport | Miami International Airport (KMIA) |
Arrival
| Time | 2026-04-22 03:37 |
|---|---|
| Airport | Norfolk International Airport (KORF) |
| Time | Latitude | Longitude | Altitude | Speed | Heading |
|---|---|---|---|---|---|
| 2026-04-22 01:21 | 25.79724 | -80.28444 | 23 ft | 0 kts | 359° |
| 2026-04-22 01:35 | 25.79723 | -80.28444 | 21 ft | 2 kts | 359° |
| 2026-04-22 01:35 | 25.79722 | -80.28444 | 21 ft | 3 kts | 359° |
| 2026-04-22 01:36 | 25.79696 | -80.28439 | 23 ft | 4 kts | 336° |
| 2026-04-22 01:36 | 25.79676 | -80.28423 | 21 ft | 4 kts | 300° |
| 2026-04-22 01:36 | 25.79670 | -80.28400 | 22 ft | 1 kts | 267° |
| 2026-04-22 01:37 | 25.79671 | -80.28400 | 22 ft | 0 kts | 267° |
| 2026-04-22 01:39 | 25.79670 | -80.28403 | 21 ft | 1 kts | 268° |
| 2026-04-22 01:39 | 25.79669 | -80.28424 | 21 ft | 5 kts | 266° |
| 2026-04-22 01:39 | 25.79667 | -80.28478 | 21 ft | 10 kts | 267° |
| 2026-04-22 01:39 | 25.79654 | -80.28567 | 22 ft | 13 kts | 261° |
| 2026-04-22 01:40 | 25.79649 | -80.28644 | 22 ft | 9 kts | 265° |
| 2026-04-22 01:40 | 25.79642 | -80.28725 | 23 ft | 12 kts | 265° |
| 2026-04-22 01:40 | 25.79671 | -80.28811 | 23 ft | 12 kts | 333° |
| 2026-04-22 01:40 | 25.79761 | -80.28817 | 25 ft | 14 kts | 359° |
| 2026-04-22 01:41 | 25.79867 | -80.28820 | 26 ft | 16 kts | 357° |
| 2026-04-22 01:41 | 25.79958 | -80.28824 | 25 ft | 12 kts | 355° |
| 2026-04-22 01:41 | 25.80014 | -80.28883 | 24 ft | 14 kts | 271° |
| 2026-04-22 01:41 | 25.80005 | -80.29005 | 23 ft | 17 kts | 266° |
| 2026-04-22 01:42 | 25.80000 | -80.29145 | 24 ft | 19 kts | 268° |
| 2026-04-22 01:42 | 25.79995 | -80.29303 | 22 ft | 22 kts | 268° |
| 2026-04-22 01:42 | 25.79988 | -80.29498 | 16 ft | 28 kts | 267° |
| 2026-04-22 01:42 | 25.79979 | -80.29717 | 16 ft | 29 kts | 267° |
| 2026-04-22 01:43 | 25.79971 | -80.29875 | 14 ft | 17 kts | 265° |
| 2026-04-22 01:43 | 25.79990 | -80.30015 | 14 ft | 20 kts | 285° |
| 2026-04-22 01:43 | 25.80027 | -80.30117 | 17 ft | 11 kts | 317° |
| 2026-04-22 01:43 | 25.80077 | -80.30099 | 16 ft | 9 kts | 85° |
| 2026-04-22 01:44 | 25.80077 | -80.30008 | 15 ft | 16 kts | 89° |
| 2026-04-22 01:44 | 25.80093 | -80.29628 | 16 ft | 86 kts | 87° |
| 2026-04-22 01:44 | 25.80131 | -80.28725 | 24 ft | 145 kts | 87° |
| 2026-04-22 01:44 | 25.80200 | -80.27490 | 392 ft | 168 kts | 81° |
| 2026-04-22 01:45 | 25.80281 | -80.26152 | 1055 ft | 178 kts | 89° |
| 2026-04-22 01:45 | 25.80092 | -80.24791 | 1772 ft | 193 kts | 104° |
| 2026-04-22 01:45 | 25.79501 | -80.23404 | 2619 ft | 200 kts | 116° |
| 2026-04-22 01:45 | 25.78800 | -80.22053 | 3560 ft | 205 kts | 115° |
| 2026-04-22 01:46 | 25.78112 | -80.20662 | 4500 ft | 207 kts | 114° |
| 2026-04-22 01:46 | 25.77424 | -80.19232 | 5342 ft | 212 kts | 114° |
| 2026-04-22 01:46 | 25.76979 | -80.18254 | 5858 ft | 217 kts | 108° |
| 2026-04-22 01:46 | 25.76984 | -80.16078 | 6883 ft | 218 kts | 68° |
| 2026-04-22 01:47 | 25.77820 | -80.14642 | 7496 ft | 226 kts | 41° |
| 2026-04-22 01:47 | 25.78684 | -80.13984 | 7956 ft | 230 kts | 22° |
| 2026-04-22 01:47 | 25.80221 | -80.13319 | 8524 ft | 246 kts | 20° |
| 2026-04-22 01:47 | 25.82439 | -80.12294 | 9151 ft | 273 kts | 23° |
| 2026-04-22 01:48 | 25.83549 | -80.11546 | 9451 ft | 288 kts | 36° |
| 2026-04-22 01:48 | 25.85219 | -80.10264 | 10212 ft | 291 kts | 22° |
| 2026-04-22 01:48 | 25.87207 | -80.09568 | 10702 ft | 307 kts | 14° |
| 2026-04-22 01:48 | 25.89300 | -80.08772 | 11051 ft | 329 kts | 19° |
| 2026-04-22 01:49 | 25.91459 | -80.07843 | 11478 ft | 344 kts | 21° |
| 2026-04-22 01:49 | 25.93705 | -80.06822 | 12157 ft | 350 kts | 21° |
| 2026-04-22 01:49 | 25.95969 | -80.05778 | 12988 ft | 353 kts | 22° |
| 2026-04-22 01:49 | 25.98245 | -80.04715 | 13808 ft | 357 kts | 22° |
| 2026-04-22 01:50 | 26.00555 | -80.03627 | 14550 ft | 361 kts | 22° |
| 2026-04-22 01:50 | 26.02884 | -80.02533 | 15300 ft | 365 kts | 21° |
| 2026-04-22 01:50 | 26.05216 | -80.01431 | 16021 ft | 369 kts | 21° |
| 2026-04-22 01:50 | 26.07598 | -80.00312 | 16715 ft | 374 kts | 21° |
| 2026-04-22 01:51 | 26.10011 | -79.99169 | 17455 ft | 377 kts | 19° |
| 2026-04-22 01:51 | 26.12444 | -79.98023 | 18099 ft | 383 kts | 19° |
| 2026-04-22 01:51 | 26.14906 | -79.96860 | 18767 ft | 386 kts | 20° |
| 2026-04-22 01:51 | 26.17360 | -79.95698 | 19311 ft | 391 kts | 19° |
| 2026-04-22 01:52 | 26.19879 | -79.94510 | 19896 ft | 395 kts | 19° |
| 2026-04-22 01:52 | 26.22431 | -79.93302 | 20478 ft | 399 kts | 19° |
| 2026-04-22 01:52 | 26.25005 | -79.92086 | 21035 ft | 404 kts | 19° |
| 2026-04-22 01:52 | 26.27606 | -79.90855 | 21614 ft | 407 kts | 19° |
| 2026-04-22 01:53 | 26.30239 | -79.89610 | 22178 ft | 411 kts | 19° |
| 2026-04-22 01:53 | 26.32858 | -79.88369 | 22735 ft | 415 kts | 19° |
| 2026-04-22 01:53 | 26.35533 | -79.87103 | 23276 ft | 419 kts | 18° |
| 2026-04-22 01:53 | 26.38231 | -79.85824 | 23824 ft | 422 kts | 18° |
| 2026-04-22 01:54 | 26.40946 | -79.84534 | 24284 ft | 426 kts | 18° |
| 2026-04-22 01:54 | 26.43685 | -79.83234 | 24764 ft | 428 kts | 18° |
| 2026-04-22 01:54 | 26.46409 | -79.81941 | 25233 ft | 431 kts | 18° |
| 2026-04-22 01:54 | 26.49183 | -79.80624 | 25695 ft | 434 kts | 18° |
| 2026-04-22 01:55 | 26.51984 | -79.79293 | 26168 ft | 436 kts | 18° |
| 2026-04-22 01:55 | 26.54789 | -79.77958 | 26672 ft | 438 kts | 18° |
| 2026-04-22 01:55 | 26.57570 | -79.76637 | 27130 ft | 440 kts | 18° |
| 2026-04-22 01:55 | 26.60403 | -79.75289 | 27559 ft | 443 kts | 18° |
| 2026-04-22 01:56 | 26.63249 | -79.73934 | 27986 ft | 446 kts | 18° |
| 2026-04-22 01:56 | 26.66118 | -79.72567 | 28408 ft | 448 kts | 18° |
| 2026-04-22 01:56 | 26.69009 | -79.71190 | 28826 ft | 451 kts | 18° |
| 2026-04-22 01:56 | 26.71866 | -79.69829 | 29234 ft | 454 kts | 18° |
| 2026-04-22 01:57 | 26.74784 | -79.68437 | 29663 ft | 457 kts | 18° |
| 2026-04-22 01:57 | 26.77718 | -79.67037 | 30064 ft | 459 kts | 18° |
| 2026-04-22 01:57 | 26.80665 | -79.65629 | 30464 ft | 462 kts | 18° |
| 2026-04-22 01:57 | 26.83636 | -79.64209 | 30809 ft | 464 kts | 18° |
| 2026-04-22 01:58 | 26.86618 | -79.62785 | 31145 ft | 467 kts | 18° |
| 2026-04-22 01:58 | 26.89615 | -79.61352 | 31501 ft | 468 kts | 18° |
| 2026-04-22 01:58 | 26.92581 | -79.59937 | 31922 ft | 468 kts | 18° |
| 2026-04-22 01:58 | 26.95576 | -79.58508 | 32385 ft | 467 kts | 18° |
| 2026-04-22 01:59 | 26.98567 | -79.57082 | 32862 ft | 466 kts | 18° |
| 2026-04-22 01:59 | 27.01554 | -79.55657 | 33324 ft | 465 kts | 18° |
| 2026-04-22 01:59 | 27.04543 | -79.54231 | 33796 ft | 464 kts | 18° |
| 2026-04-22 01:59 | 27.07512 | -79.52813 | 34262 ft | 463 kts | 18° |
| 2026-04-22 02:00 | 27.10482 | -79.51392 | 34689 ft | 462 kts | 18° |
| 2026-04-22 02:00 | 27.13404 | -79.49995 | 35057 ft | 461 kts | 17° |
| 2026-04-22 02:00 | 27.16348 | -79.48585 | 35403 ft | 461 kts | 17° |
| 2026-04-22 02:00 | 27.19309 | -79.47164 | 35716 ft | 462 kts | 17° |
| 2026-04-22 02:01 | 27.22274 | -79.45740 | 36030 ft | 462 kts | 17° |
| 2026-04-22 02:01 | 27.25207 | -79.44330 | 36327 ft | 462 kts | 17° |
| 2026-04-22 02:01 | 27.28174 | -79.42906 | 36633 ft | 463 kts | 16° |
| 2026-04-22 02:01 | 27.31142 | -79.41479 | 36928 ft | 463 kts | 16° |
| 2026-04-22 02:02 | 27.34119 | -79.40046 | 37211 ft | 464 kts | 15° |
| 2026-04-22 02:02 | 27.37056 | -79.38630 | 37493 ft | 464 kts | 15° |
| 2026-04-22 02:02 | 27.40029 | -79.37195 | 37770 ft | 464 kts | 15° |
| 2026-04-22 02:02 | 27.43010 | -79.35755 | 38041 ft | 464 kts | 15° |
| 2026-04-22 02:03 | 27.45986 | -79.34316 | 38275 ft | 465 kts | 15° |
| 2026-04-22 02:03 | 27.48924 | -79.32894 | 38315 ft | 466 kts | 15° |
| 2026-04-22 02:03 | 27.54864 | -79.30019 | 38295 ft | 463 kts | 15° |
| 2026-04-22 02:04 | 27.63732 | -79.25719 | 38291 ft | 463 kts | 15° |
| 2026-04-22 02:05 | 27.69669 | -79.22837 | 38297 ft | 464 kts | 15° |
| 2026-04-22 02:05 | 27.75573 | -79.19967 | 38296 ft | 464 kts | 15° |
| 2026-04-22 02:06 | 27.81510 | -79.17078 | 38300 ft | 464 kts | 15° |
| 2026-04-22 02:06 | 27.87461 | -79.14178 | 38301 ft | 464 kts | 15° |
| 2026-04-22 02:07 | 27.93349 | -79.11306 | 38303 ft | 464 kts | 15° |
| 2026-04-22 02:07 | 27.99293 | -79.08403 | 38302 ft | 464 kts | 15° |
| 2026-04-22 02:08 | 28.05235 | -79.05497 | 38314 ft | 465 kts | 15° |
| 2026-04-22 02:08 | 28.11167 | -79.02593 | 38305 ft | 464 kts | 15° |
| 2026-04-22 02:09 | 28.17112 | -78.99679 | 38307 ft | 464 kts | 15° |
| 2026-04-22 02:09 | 28.23019 | -78.96780 | 38338 ft | 465 kts | 15° |
| 2026-04-22 02:10 | 28.28950 | -78.93865 | 38307 ft | 464 kts | 15° |
| 2026-04-22 02:10 | 28.34882 | -78.90947 | 38306 ft | 464 kts | 15° |
| 2026-04-22 02:11 | 28.40817 | -78.88024 | 38303 ft | 464 kts | 15° |
| 2026-04-22 02:11 | 28.46713 | -78.85116 | 38313 ft | 464 kts | 15° |
| 2026-04-22 02:12 | 28.52668 | -78.82175 | 38317 ft | 464 kts | 15° |
| 2026-04-22 02:12 | 28.58562 | -78.79262 | 38314 ft | 464 kts | 15° |
| 2026-04-22 02:13 | 28.64493 | -78.76326 | 38316 ft | 464 kts | 15° |
| 2026-04-22 02:13 | 28.70417 | -78.73390 | 38314 ft | 464 kts | 15° |
| 2026-04-22 02:14 | 28.76324 | -78.70459 | 38312 ft | 464 kts | 15° |
| 2026-04-22 02:14 | 28.82212 | -78.67534 | 38327 ft | 464 kts | 15° |
| 2026-04-22 02:15 | 28.88128 | -78.64591 | 38318 ft | 463 kts | 15° |
| 2026-04-22 02:15 | 28.94042 | -78.61645 | 38319 ft | 463 kts | 15° |
| 2026-04-22 02:16 | 28.99918 | -78.58715 | 38321 ft | 463 kts | 15° |
| 2026-04-22 02:16 | 29.05836 | -78.55760 | 38358 ft | 463 kts | 15° |
| 2026-04-22 02:17 | 29.11745 | -78.52805 | 38312 ft | 462 kts | 15° |
| 2026-04-22 02:17 | 29.17612 | -78.49869 | 38328 ft | 462 kts | 15° |
| 2026-04-22 02:18 | 29.23524 | -78.46906 | 38321 ft | 462 kts | 15° |
| 2026-04-22 02:18 | 29.29380 | -78.43967 | 38316 ft | 462 kts | 15° |
| 2026-04-22 02:19 | 29.35278 | -78.41003 | 38325 ft | 462 kts | 15° |
| 2026-04-22 02:19 | 29.41175 | -78.38037 | 38322 ft | 462 kts | 15° |
| 2026-04-22 02:20 | 29.47108 | -78.35520 | 38318 ft | 444 kts | 1° |
| 2026-04-22 02:20 | 29.50133 | -78.35396 | 38339 ft | 428 kts | 345° |
| 2026-04-22 02:20 | 29.53032 | -78.36022 | 38348 ft | 423 kts | 340° |
| 2026-04-22 02:21 | 29.58715 | -78.37617 | 38328 ft | 421 kts | 338° |
| 2026-04-22 02:21 | 29.64388 | -78.39397 | 38331 ft | 421 kts | 338° |
| 2026-04-22 02:22 | 29.70040 | -78.41225 | 38325 ft | 421 kts | 337° |
| 2026-04-22 02:22 | 29.75662 | -78.43056 | 38328 ft | 421 kts | 337° |
| 2026-04-22 02:23 | 29.81307 | -78.44898 | 38327 ft | 421 kts | 337° |
| 2026-04-22 02:23 | 29.86928 | -78.46734 | 38328 ft | 421 kts | 337° |
| 2026-04-22 02:24 | 29.92586 | -78.48584 | 38333 ft | 421 kts | 337° |
| 2026-04-22 02:24 | 29.98198 | -78.50422 | 38326 ft | 421 kts | 337° |
| 2026-04-22 02:25 | 30.03858 | -78.52277 | 38327 ft | 421 kts | 337° |
| 2026-04-22 02:25 | 30.09469 | -78.54118 | 38328 ft | 421 kts | 337° |
| 2026-04-22 02:26 | 30.15230 | -78.55565 | 38303 ft | 434 kts | 353° |
| 2026-04-22 02:26 | 30.21300 | -78.54935 | 38302 ft | 443 kts | 358° |
| 2026-04-22 02:27 | 30.27429 | -78.54120 | 38327 ft | 444 kts | 359° |
| 2026-04-22 02:27 | 30.33573 | -78.53249 | 38322 ft | 443 kts | 359° |
| 2026-04-22 02:28 | 30.39673 | -78.52375 | 38322 ft | 444 kts | 359° |
| 2026-04-22 02:28 | 30.45818 | -78.51398 | 38349 ft | 445 kts | 0° |
| 2026-04-22 02:29 | 30.51929 | -78.50408 | 38315 ft | 442 kts | 0° |
| 2026-04-22 02:29 | 30.57999 | -78.49426 | 38323 ft | 442 kts | 0° |
| 2026-04-22 02:30 | 30.64106 | -78.48436 | 38325 ft | 442 kts | 0° |
| 2026-04-22 02:30 | 30.70210 | -78.47446 | 38325 ft | 442 kts | 0° |
| 2026-04-22 02:31 | 30.76268 | -78.46462 | 38341 ft | 440 kts | 0° |
| 2026-04-22 02:31 | 30.82322 | -78.45478 | 38326 ft | 438 kts | 0° |
| 2026-04-22 02:32 | 30.88387 | -78.44490 | 38325 ft | 439 kts | 0° |
| 2026-04-22 02:32 | 30.94422 | -78.43506 | 38325 ft | 439 kts | 0° |
| 2026-04-22 02:33 | 31.00478 | -78.42518 | 38347 ft | 439 kts | 0° |
| 2026-04-22 02:33 | 31.05500 | -78.41697 | 38318 ft | 437 kts | 0° |
| 2026-04-22 02:34 | 31.11525 | -78.40711 | 38329 ft | 437 kts | 0° |
| 2026-04-22 02:34 | 31.17547 | -78.39725 | 38324 ft | 437 kts | 0° |
| 2026-04-22 02:35 | 31.23539 | -78.38742 | 38324 ft | 437 kts | 0° |
| 2026-04-22 02:35 | 31.29568 | -78.37751 | 38338 ft | 436 kts | 0° |
| 2026-04-22 02:36 | 31.35551 | -78.36767 | 38328 ft | 435 kts | 0° |
| 2026-04-22 02:36 | 31.41568 | -78.35776 | 38328 ft | 436 kts | 0° |
| 2026-04-22 02:37 | 31.47545 | -78.34791 | 38330 ft | 436 kts | 0° |
| 2026-04-22 02:37 | 31.53561 | -78.33798 | 38330 ft | 436 kts | 0° |
| 2026-04-22 02:38 | 31.59565 | -78.32805 | 38323 ft | 434 kts | 0° |
| 2026-04-22 02:38 | 31.65554 | -78.31814 | 38327 ft | 435 kts | 0° |
| 2026-04-22 02:39 | 31.71510 | -78.30826 | 38332 ft | 435 kts | 0° |
| 2026-04-22 02:39 | 31.77510 | -78.29831 | 38336 ft | 435 kts | 0° |
| 2026-04-22 02:40 | 31.83470 | -78.28840 | 38340 ft | 434 kts | 0° |
| 2026-04-22 02:40 | 31.89469 | -78.27842 | 38329 ft | 434 kts | 0° |
| 2026-04-22 02:41 | 31.95443 | -78.26847 | 38328 ft | 434 kts | 0° |
| 2026-04-22 02:41 | 32.01434 | -78.25842 | 38334 ft | 435 kts | 2° |
| 2026-04-22 02:42 | 32.07414 | -78.24534 | 38369 ft | 437 kts | 3° |
| 2026-04-22 02:42 | 32.13364 | -78.23251 | 38336 ft | 435 kts | 2° |
| 2026-04-22 02:43 | 32.19327 | -78.21967 | 38336 ft | 435 kts | 3° |
| 2026-04-22 02:43 | 32.25306 | -78.20679 | 38336 ft | 435 kts | 3° |
| 2026-04-22 02:44 | 32.31252 | -78.19397 | 38336 ft | 435 kts | 3° |
| 2026-04-22 02:44 | 32.37191 | -78.18114 | 38339 ft | 435 kts | 3° |
| 2026-04-22 02:45 | 32.43161 | -78.16823 | 38339 ft | 435 kts | 3° |
| 2026-04-22 02:45 | 32.49124 | -78.15531 | 38342 ft | 435 kts | 3° |
| 2026-04-22 02:46 | 32.55084 | -78.14239 | 38341 ft | 435 kts | 3° |
| 2026-04-22 02:46 | 32.61012 | -78.12951 | 38357 ft | 435 kts | 3° |
| 2026-04-22 02:47 | 32.66978 | -78.11654 | 38346 ft | 435 kts | 3° |
| 2026-04-22 02:47 | 32.72926 | -78.10359 | 38344 ft | 436 kts | 3° |
| 2026-04-22 02:48 | 32.78900 | -78.09056 | 38343 ft | 436 kts | 3° |
| 2026-04-22 02:48 | 32.84867 | -78.07753 | 38344 ft | 436 kts | 3° |
| 2026-04-22 02:49 | 32.90791 | -78.06458 | 38344 ft | 435 kts | 3° |
| 2026-04-22 02:49 | 32.96772 | -78.05149 | 38351 ft | 435 kts | 3° |
| 2026-04-22 02:50 | 33.02735 | -78.03841 | 38344 ft | 436 kts | 3° |
| 2026-04-22 02:50 | 33.05363 | -78.03265 | 38342 ft | 436 kts | 3° |
| 2026-04-22 02:51 | 33.11302 | -78.01960 | 38368 ft | 436 kts | 3° |
| 2026-04-22 02:51 | 33.17283 | -78.00644 | 38340 ft | 436 kts | 3° |
| 2026-04-22 02:52 | 33.23222 | -77.99336 | 38341 ft | 436 kts | 3° |
| 2026-04-22 02:52 | 33.29199 | -77.98018 | 38342 ft | 436 kts | 3° |
| 2026-04-22 02:53 | 33.35172 | -77.96698 | 38335 ft | 436 kts | 3° |
| 2026-04-22 02:53 | 33.41111 | -77.95384 | 38357 ft | 437 kts | 3° |
| 2026-04-22 02:54 | 33.47116 | -77.94054 | 38351 ft | 438 kts | 3° |
| 2026-04-22 02:54 | 33.53116 | -77.92723 | 38340 ft | 438 kts | 3° |
| 2026-04-22 02:55 | 33.59079 | -77.91399 | 38345 ft | 438 kts | 3° |
| 2026-04-22 02:55 | 33.65102 | -77.90059 | 38222 ft | 441 kts | 3° |
| 2026-04-22 02:55 | 33.68124 | -77.89386 | 37963 ft | 440 kts | 4° |
| 2026-04-22 02:56 | 33.71141 | -77.88714 | 37698 ft | 440 kts | 4° |
| 2026-04-22 02:56 | 33.74124 | -77.88049 | 37446 ft | 441 kts | 4° |
| 2026-04-22 02:56 | 33.77157 | -77.87372 | 37326 ft | 440 kts | 4° |
| 2026-04-22 02:57 | 33.83203 | -77.85875 | 37352 ft | 445 kts | 5° |
| 2026-04-22 02:57 | 33.89219 | -77.84363 | 37369 ft | 444 kts | 5° |
| 2026-04-22 02:58 | 33.95275 | -77.82842 | 37344 ft | 444 kts | 5° |
| 2026-04-22 02:58 | 34.01334 | -77.81319 | 37342 ft | 444 kts | 5° |
| 2026-04-22 02:59 | 34.07381 | -77.79797 | 37338 ft | 444 kts | 5° |
| 2026-04-22 02:59 | 34.13406 | -77.78277 | 37362 ft | 444 kts | 5° |
| 2026-04-22 03:00 | 34.19420 | -77.76759 | 37337 ft | 442 kts | 5° |
| 2026-04-22 03:00 | 34.25458 | -77.75232 | 37344 ft | 443 kts | 5° |
| 2026-04-22 03:01 | 34.31467 | -77.73711 | 37331 ft | 443 kts | 5° |
| 2026-04-22 03:01 | 34.37495 | -77.72182 | 37362 ft | 443 kts | 5° |
| 2026-04-22 03:02 | 34.43530 | -77.70649 | 37334 ft | 441 kts | 5° |
| 2026-04-22 03:02 | 34.49512 | -77.69128 | 37339 ft | 441 kts | 5° |
| 2026-04-22 03:03 | 34.55544 | -77.67603 | 37339 ft | 440 kts | 4° |
| 2026-04-22 03:03 | 34.61539 | -77.66262 | 37339 ft | 440 kts | 4° |
| 2026-04-22 03:04 | 34.67557 | -77.64901 | 37346 ft | 438 kts | 4° |
| 2026-04-22 03:04 | 34.73551 | -77.63541 | 37349 ft | 438 kts | 4° |
| 2026-04-22 03:05 | 34.79561 | -77.62175 | 37350 ft | 438 kts | 4° |
| 2026-04-22 03:05 | 34.85537 | -77.60815 | 37348 ft | 438 kts | 4° |
| 2026-04-22 03:06 | 34.91535 | -77.59448 | 37346 ft | 437 kts | 4° |
| 2026-04-22 03:06 | 34.97527 | -77.58080 | 37349 ft | 436 kts | 4° |
| 2026-04-22 03:07 | 35.03460 | -77.56724 | 37344 ft | 435 kts | 4° |
| 2026-04-22 03:07 | 35.09437 | -77.55355 | 37342 ft | 436 kts | 4° |
| 2026-04-22 03:08 | 35.15314 | -77.53532 | 37325 ft | 447 kts | 17° |
| 2026-04-22 03:08 | 35.21034 | -77.50484 | 37330 ft | 448 kts | 16° |
| 2026-04-22 03:09 | 35.26748 | -77.47439 | 37346 ft | 449 kts | 16° |
| 2026-04-22 03:09 | 35.29607 | -77.45905 | 36794 ft | 449 kts | 16° |
| 2026-04-22 03:09 | 35.32499 | -77.44351 | 35923 ft | 451 kts | 17° |
| 2026-04-22 03:09 | 35.35353 | -77.42815 | 35195 ft | 446 kts | 17° |
| 2026-04-22 03:10 | 35.38186 | -77.41290 | 34322 ft | 444 kts | 17° |
| 2026-04-22 03:10 | 35.41013 | -77.39767 | 33042 ft | 444 kts | 17° |
| 2026-04-22 03:10 | 35.43814 | -77.38257 | 31693 ft | 446 kts | 17° |
| 2026-04-22 03:10 | 35.46667 | -77.36718 | 30317 ft | 448 kts | 17° |
| 2026-04-22 03:11 | 35.49532 | -77.35171 | 28712 ft | 454 kts | 18° |
| 2026-04-22 03:11 | 35.52455 | -77.33592 | 27552 ft | 459 kts | 18° |
| 2026-04-22 03:11 | 35.55370 | -77.32016 | 26895 ft | 453 kts | 18° |
| 2026-04-22 03:11 | 35.58243 | -77.30460 | 26240 ft | 447 kts | 18° |
| 2026-04-22 03:12 | 35.61043 | -77.28944 | 25518 ft | 444 kts | 18° |
| 2026-04-22 03:12 | 35.66674 | -77.25891 | 24101 ft | 439 kts | 18° |
| 2026-04-22 03:12 | 35.69470 | -77.24373 | 23299 ft | 437 kts | 19° |
| 2026-04-22 03:13 | 35.72201 | -77.22889 | 22575 ft | 432 kts | 19° |
| 2026-04-22 03:13 | 35.74943 | -77.21398 | 21890 ft | 428 kts | 19° |
| 2026-04-22 03:13 | 35.77658 | -77.19921 | 21200 ft | 423 kts | 19° |
| 2026-04-22 03:13 | 35.80343 | -77.18459 | 20526 ft | 419 kts | 19° |
| 2026-04-22 03:14 | 35.83008 | -77.17007 | 19867 ft | 416 kts | 19° |
| 2026-04-22 03:14 | 35.85626 | -77.15579 | 19009 ft | 418 kts | 19° |
| 2026-04-22 03:14 | 35.88274 | -77.14134 | 18236 ft | 411 kts | 19° |
| 2026-04-22 03:14 | 35.90879 | -77.12710 | 17532 ft | 408 kts | 20° |
| 2026-04-22 03:15 | 35.93460 | -77.11299 | 16861 ft | 403 kts | 20° |
| 2026-04-22 03:15 | 35.96014 | -77.09903 | 16227 ft | 398 kts | 20° |
| 2026-04-22 03:15 | 35.98512 | -77.08535 | 15603 ft | 394 kts | 20° |
| 2026-04-22 03:15 | 36.01005 | -77.07170 | 15003 ft | 389 kts | 21° |
| 2026-04-22 03:16 | 36.03479 | -77.05814 | 14409 ft | 385 kts | 21° |
| 2026-04-22 03:16 | 36.05917 | -77.04478 | 13786 ft | 382 kts | 21° |
| 2026-04-22 03:16 | 36.08338 | -77.03150 | 13157 ft | 378 kts | 21° |
| 2026-04-22 03:16 | 36.10735 | -77.01834 | 12585 ft | 373 kts | 21° |
| 2026-04-22 03:17 | 36.13060 | -77.00556 | 12047 ft | 368 kts | 21° |
| 2026-04-22 03:17 | 36.15371 | -76.99285 | 11744 ft | 355 kts | 21° |
| 2026-04-22 03:17 | 36.17585 | -76.98067 | 11559 ft | 338 kts | 21° |
| 2026-04-22 03:17 | 36.19687 | -76.96910 | 11372 ft | 321 kts | 20° |
| 2026-04-22 03:18 | 36.21653 | -76.95826 | 11210 ft | 305 kts | 20° |
| 2026-04-22 03:18 | 36.23551 | -76.94781 | 11041 ft | 291 kts | 20° |
| 2026-04-22 03:18 | 36.25362 | -76.93782 | 10895 ft | 277 kts | 20° |
| 2026-04-22 03:18 | 36.27086 | -76.92831 | 10751 ft | 265 kts | 20° |
| 2026-04-22 03:19 | 36.28714 | -76.91932 | 10628 ft | 252 kts | 19° |
| 2026-04-22 03:19 | 36.30288 | -76.91063 | 10496 ft | 241 kts | 19° |
| 2026-04-22 03:19 | 36.31304 | -76.90503 | 10413 ft | 241 kts | 19° |
| 2026-04-22 03:19 | 36.33404 | -76.89343 | 10180 ft | 254 kts | 19° |
| 2026-04-22 03:20 | 36.34503 | -76.88735 | 10049 ft | 256 kts | 19° |
| 2026-04-22 03:20 | 36.36659 | -76.87512 | 9996 ft | 260 kts | 25° |
| 2026-04-22 03:20 | 36.37621 | -76.86595 | 9986 ft | 265 kts | 40° |
| 2026-04-22 03:20 | 36.38916 | -76.84955 | 10004 ft | 265 kts | 40° |
| 2026-04-22 03:21 | 36.40210 | -76.83333 | 9985 ft | 263 kts | 40° |
| 2026-04-22 03:21 | 36.41496 | -76.81706 | 9999 ft | 264 kts | 40° |
| 2026-04-22 03:21 | 36.42780 | -76.80074 | 9998 ft | 264 kts | 40° |
| 2026-04-22 03:21 | 36.44046 | -76.78459 | 9982 ft | 264 kts | 40° |
| 2026-04-22 03:22 | 36.45325 | -76.76825 | 9996 ft | 264 kts | 40° |
| 2026-04-22 03:22 | 36.46605 | -76.75186 | 9999 ft | 264 kts | 40° |
| 2026-04-22 03:22 | 36.47886 | -76.73545 | 10003 ft | 264 kts | 40° |
| 2026-04-22 03:22 | 36.49164 | -76.71908 | 10007 ft | 264 kts | 40° |
| 2026-04-22 03:23 | 36.50424 | -76.70292 | 9996 ft | 263 kts | 40° |
| 2026-04-22 03:23 | 36.51706 | -76.68648 | 9996 ft | 263 kts | 40° |
| 2026-04-22 03:23 | 36.52866 | -76.66858 | 9986 ft | 268 kts | 52° |
| 2026-04-22 03:23 | 36.53856 | -76.64915 | 10007 ft | 269 kts | 51° |
| 2026-04-22 03:24 | 36.54882 | -76.62966 | 9990 ft | 268 kts | 50° |
| 2026-04-22 03:24 | 36.55916 | -76.61029 | 10005 ft | 269 kts | 50° |
| 2026-04-22 03:24 | 36.56959 | -76.59094 | 10026 ft | 269 kts | 50° |
| 2026-04-22 03:24 | 36.58004 | -76.57167 | 10017 ft | 269 kts | 50° |
| 2026-04-22 03:25 | 36.59053 | -76.55238 | 9968 ft | 270 kts | 50° |
| 2026-04-22 03:25 | 36.60106 | -76.53304 | 9455 ft | 276 kts | 50° |
| 2026-04-22 03:25 | 36.61198 | -76.51299 | 8929 ft | 281 kts | 51° |
| 2026-04-22 03:25 | 36.62297 | -76.49280 | 8556 ft | 281 kts | 51° |
| 2026-04-22 03:26 | 36.63392 | -76.47270 | 8243 ft | 279 kts | 51° |
| 2026-04-22 03:26 | 36.64463 | -76.45303 | 7931 ft | 274 kts | 51° |
| 2026-04-22 03:26 | 36.65523 | -76.43354 | 7621 ft | 268 kts | 51° |
| 2026-04-22 03:26 | 36.66571 | -76.41426 | 7343 ft | 266 kts | 51° |
| 2026-04-22 03:27 | 36.67596 | -76.39542 | 7052 ft | 265 kts | 52° |
| 2026-04-22 03:27 | 36.68628 | -76.37640 | 6753 ft | 264 kts | 52° |
| 2026-04-22 03:27 | 36.69662 | -76.35737 | 6433 ft | 263 kts | 52° |
| 2026-04-22 03:27 | 36.70687 | -76.33848 | 6124 ft | 262 kts | 52° |
| 2026-04-22 03:28 | 36.71697 | -76.31987 | 5828 ft | 261 kts | 52° |
| 2026-04-22 03:28 | 36.72708 | -76.30120 | 5535 ft | 260 kts | 52° |
| 2026-04-22 03:28 | 36.73722 | -76.28247 | 5243 ft | 259 kts | 52° |
| 2026-04-22 03:28 | 36.74753 | -76.26420 | 5061 ft | 255 kts | 45° |
| 2026-04-22 03:29 | 36.76028 | -76.24868 | 5034 ft | 258 kts | 38° |
| 2026-04-22 03:29 | 36.77353 | -76.23358 | 5039 ft | 251 kts | 38° |
| 2026-04-22 03:29 | 36.78592 | -76.21935 | 5026 ft | 236 kts | 38° |
| 2026-04-22 03:29 | 36.79773 | -76.20574 | 5020 ft | 228 kts | 38° |
| 2026-04-22 03:30 | 36.80936 | -76.19231 | 5033 ft | 227 kts | 38° |
| 2026-04-22 03:30 | 36.82096 | -76.17889 | 5024 ft | 226 kts | 38° |
| 2026-04-22 03:30 | 36.83244 | -76.16559 | 5000 ft | 228 kts | 38° |
| 2026-04-22 03:30 | 36.84385 | -76.15269 | 4905 ft | 211 kts | 37° |
| 2026-04-22 03:31 | 36.85473 | -76.14066 | 4648 ft | 207 kts | 37° |
| 2026-04-22 03:31 | 36.86539 | -76.12886 | 4340 ft | 206 kts | 37° |
| 2026-04-22 03:31 | 36.87606 | -76.11701 | 4045 ft | 202 kts | 37° |
| 2026-04-22 03:31 | 36.88638 | -76.10551 | 3748 ft | 191 kts | 37° |
| 2026-04-22 03:32 | 36.89602 | -76.09477 | 3462 ft | 181 kts | 37° |
| 2026-04-22 03:32 | 36.90525 | -76.08450 | 3232 ft | 175 kts | 37° |
| 2026-04-22 03:32 | 36.91477 | -76.07523 | 3094 ft | 175 kts | 26° |
| 2026-04-22 03:32 | 36.92576 | -76.06927 | 2879 ft | 170 kts | 7° |
| 2026-04-22 03:33 | 36.93731 | -76.06851 | 2596 ft | 163 kts | 345° |
| 2026-04-22 03:33 | 36.94769 | -76.07238 | 2369 ft | 150 kts | 324° |
| 2026-04-22 03:33 | 36.95591 | -76.07982 | 2192 ft | 144 kts | 306° |
| 2026-04-22 03:33 | 36.96171 | -76.08952 | 2088 ft | 139 kts | 289° |
| 2026-04-22 03:34 | 36.96513 | -76.10078 | 1952 ft | 136 kts | 275° |
| 2026-04-22 03:34 | 36.96600 | -76.11223 | 1784 ft | 133 kts | 260° |
| 2026-04-22 03:34 | 36.96448 | -76.12352 | 1555 ft | 130 kts | 245° |
| 2026-04-22 03:34 | 36.96078 | -76.13365 | 1358 ft | 127 kts | 231° |
| 2026-04-22 03:35 | 36.95516 | -76.14207 | 1238 ft | 126 kts | 217° |
| 2026-04-22 03:35 | 36.94812 | -76.14856 | 1122 ft | 126 kts | 210° |
| 2026-04-22 03:35 | 36.94106 | -76.15496 | 936 ft | 125 kts | 212° |
| 2026-04-22 03:35 | 36.93416 | -76.16150 | 736 ft | 127 kts | 212° |
| 2026-04-22 03:36 | 36.92699 | -76.16828 | 545 ft | 129 kts | 213° |
| 2026-04-22 03:36 | 36.92007 | -76.17520 | 393 ft | 126 kts | 215° |
| 2026-04-22 03:36 | 36.91318 | -76.18199 | 218 ft | 125 kts | 215° |
| 2026-04-22 03:36 | 36.90612 | -76.18868 | 69 ft | 128 kts | 217° |
| 2026-04-22 03:37 | 36.89962 | -76.19499 | 6 ft | 93 kts | 218° |
| 2026-04-22 03:37 | 36.89610 | -76.19842 | 10 ft | 41 kts | 216° |
| 2026-04-22 03:37 | 36.89426 | -76.20068 | 11 ft | 31 kts | 274° |
| 2026-04-22 03:37 | 36.89488 | -76.20172 | 6 ft | 8 kts | 18° |
| 2026-04-22 03:38 | 36.89540 | -76.20126 | 8 ft | 11 kts | 37° |
| 2026-04-22 03:38 | 36.89610 | -76.20062 | 6 ft | 14 kts | 37° |
| 2026-04-22 03:38 | 36.89697 | -76.19977 | 6 ft | 17 kts | 38° |
| 2026-04-22 03:38 | 36.89800 | -76.19876 | 6 ft | 21 kts | 38° |
| 2026-04-22 03:39 | 36.89889 | -76.19794 | 5 ft | 13 kts | 27° |
| 2026-04-22 03:39 | 36.89944 | -76.19820 | 5 ft | 10 kts | 306° |
| 2026-04-22 03:39 | 36.89986 | -76.19903 | 5 ft | 13 kts | 288° |
| 2026-04-22 03:39 | 36.90000 | -76.19976 | 5 ft | 10 kts | 282° |
| 2026-04-22 03:40 | 36.90007 | -76.20070 | 5 ft | 9 kts | 268° |
| 2026-04-22 03:40 | 36.89991 | -76.20143 | 5 ft | 10 kts | 225° |
| 2026-04-22 03:40 | 36.89959 | -76.20173 | 5 ft | 5 kts | 217° |
| 2026-04-22 03:40 | 36.89957 | -76.20174 | 5 ft | 0 kts | 217° |